sensor_id;sensor_type;location;lat;lon;timestamp;pressure;altitude;pressure_sealevel;temperature;humidity
72525;BME280;60547;48.502;8.996;2023-03-19T00:01:06;97627.09;;;8.83;69.88
72525;BME280;60547;48.502;8.996;2023-03-19T00:03:32;97627.47;;;8.85;70.44
72525;BME280;60547;48.502;8.996;2023-03-19T00:05:58;97623.28;;;8.77;70.56
72525;BME280;60547;48.502;8.996;2023-03-19T00:08:24;97628.91;;;8.73;71.24
72525;BME280;60547;48.502;8.996;2023-03-19T00:10:50;97640.38;;;8.75;71.44
72525;BME280;60547;48.502;8.996;2023-03-19T00:13:16;97636.25;;;8.63;71.27
72525;BME280;60547;48.502;8.996;2023-03-19T00:15:41;97629.66;;;8.57;71.46
72525;BME280;60547;48.502;8.996;2023-03-19T00:18:07;97630.09;;;8.56;71.75
72525;BME280;60547;48.502;8.996;2023-03-19T00:20:33;97633.50;;;8.63;71.56
72525;BME280;60547;48.502;8.996;2023-03-19T00:22:58;97631.66;;;8.57;71.58
72525;BME280;60547;48.502;8.996;2023-03-19T00:25:24;97642.66;;;8.60;72.53
72525;BME280;60547;48.502;8.996;2023-03-19T00:27:50;97637.81;;;8.64;72.33
72525;BME280;60547;48.502;8.996;2023-03-19T00:30:17;97641.38;;;8.65;71.72
72525;BME280;60547;48.502;8.996;2023-03-19T00:32:43;97645.72;;;8.66;72.13
72525;BME280;60547;48.502;8.996;2023-03-19T00:35:08;97644.22;;;8.61;72.53
72525;BME280;60547;48.502;8.996;2023-03-19T00:37:35;97645.44;;;8.60;71.98
72525;BME280;60547;48.502;8.996;2023-03-19T00:40:00;97648.50;;;8.66;72.64
72525;BME280;60547;48.502;8.996;2023-03-19T00:42:26;97650.84;;;8.67;72.55
72525;BME280;60547;48.502;8.996;2023-03-19T00:44:52;97664.47;;;8.78;71.79
72525;BME280;60547;48.502;8.996;2023-03-19T00:47:17;97666.97;;;8.72;72.06
72525;BME280;60547;48.502;8.996;2023-03-19T00:49:43;97679.47;;;8.81;71.44
72525;BME280;60547;48.502;8.996;2023-03-19T00:52:08;97677.22;;;8.76;71.45
72525;BME280;60547;48.502;8.996;2023-03-19T00:54:34;97686.31;;;8.76;71.54
72525;BME280;60547;48.502;8.996;2023-03-19T00:56:59;97689.16;;;8.72;71.39
72525;BME280;60547;48.502;8.996;2023-03-19T00:59:25;97695.78;;;8.79;70.94
72525;BME280;60547;48.502;8.996;2023-03-19T01:01:51;97707.06;;;8.88;70.64
72525;BME280;60547;48.502;8.996;2023-03-19T01:04:16;97708.69;;;8.85;70.33
72525;BME280;60547;48.502;8.996;2023-03-19T01:06:43;97708.78;;;8.82;70.36
72525;BME280;60547;48.502;8.996;2023-03-19T01:09:09;97709.69;;;8.95;70.17
72525;BME280;60547;48.502;8.996;2023-03-19T01:11:35;97714.25;;;8.85;71.27
72525;BME280;60547;48.502;8.996;2023-03-19T01:14:01;97710.19;;;8.90;71.76
72525;BME280;60547;48.502;8.996;2023-03-19T01:16:27;97702.22;;;8.92;71.80
72525;BME280;60547;48.502;8.996;2023-03-19T01:18:52;97712.81;;;8.97;71.93
72525;BME280;60547;48.502;8.996;2023-03-19T01:21:18;97715.03;;;8.86;72.73
72525;BME280;60547;48.502;8.996;2023-03-19T01:23:44;97718.50;;;8.90;72.39
72525;BME280;60547;48.502;8.996;2023-03-19T01:26:10;97716.44;;;8.94;72.50
72525;BME280;60547;48.502;8.996;2023-03-19T01:28:36;97705.00;;;8.92;73.70
72525;BME280;60547;48.502;8.996;2023-03-19T01:31:05;97696.91;;;8.81;75.08
72525;BME280;60547;48.502;8.996;2023-03-19T01:33:31;97700.09;;;8.80;76.51
72525;BME280;60547;48.502;8.996;2023-03-19T01:35:58;97701.66;;;8.81;77.49
72525;BME280;60547;48.502;8.996;2023-03-19T01:38:27;97698.97;;;8.77;78.13
72525;BME280;60547;48.502;8.996;2023-03-19T01:40:53;97702.38;;;8.85;76.37
72525;BME280;60547;48.502;8.996;2023-03-19T01:43:27;97697.69;;;8.82;78.34
72525;BME280;60547;48.502;8.996;2023-03-19T01:46:03;97695.06;;;8.74;80.35
72525;BME280;60547;48.502;8.996;2023-03-19T01:51:06;97692.78;;;8.69;80.65
72525;BME280;60547;48.502;8.996;2023-03-19T01:53:33;97696.50;;;8.63;82.56
72525;BME280;60547;48.502;8.996;2023-03-19T01:56:03;97678.50;;;8.71;81.99
72525;BME280;60547;48.502;8.996;2023-03-19T01:58:31;97666.63;;;8.70;83.96
72525;BME280;60547;48.502;8.996;2023-03-19T02:00:57;97666.78;;;8.63;85.08
72525;BME280;60547;48.502;8.996;2023-03-19T02:03:23;97666.88;;;8.40;87.37
72525;BME280;60547;48.502;8.996;2023-03-19T02:05:50;97675.31;;;8.13;87.36
72525;BME280;60547;48.502;8.996;2023-03-19T02:08:18;97692.44;;;8.28;85.79
72525;BME280;60547;48.502;8.996;2023-03-19T02:10:45;97687.41;;;8.23;84.27
72525;BME280;60547;48.502;8.996;2023-03-19T02:13:12;97706.91;;;8.39;84.54
72525;BME280;60547;48.502;8.996;2023-03-19T02:15:38;97703.38;;;8.15;84.75
72525;BME280;60547;48.502;8.996;2023-03-19T02:18:05;97712.34;;;8.23;84.50
72525;BME280;60547;48.502;8.996;2023-03-19T02:21:00;97714.75;;;8.21;85.43
72525;BME280;60547;48.502;8.996;2023-03-19T02:26:11;97726.41;;;8.32;85.93
72525;BME280;60547;48.502;8.996;2023-03-19T02:28:41;97729.19;;;8.32;86.03
72525;BME280;60547;48.502;8.996;2023-03-19T02:31:09;97715.47;;;8.25;86.42
72525;BME280;60547;48.502;8.996;2023-03-19T02:33:35;97725.28;;;8.29;86.11
72525;BME280;60547;48.502;8.996;2023-03-19T02:36:02;97716.19;;;8.29;86.15
72525;BME280;60547;48.502;8.996;2023-03-19T02:38:32;97718.72;;;8.20;86.71
72525;BME280;60547;48.502;8.996;2023-03-19T02:41:03;97727.53;;;8.15;87.71
72525;BME280;60547;48.502;8.996;2023-03-19T02:43:32;97711.91;;;8.04;87.14
72525;BME280;60547;48.502;8.996;2023-03-19T02:45:59;97733.34;;;8.00;88.42
72525;BME280;60547;48.502;8.996;2023-03-19T02:48:25;97726.00;;;7.90;88.07
72525;BME280;60547;48.502;8.996;2023-03-19T02:50:51;97725.66;;;7.88;88.42
72525;BME280;60547;48.502;8.996;2023-03-19T02:53:16;97725.53;;;7.95;87.65
72525;BME280;60547;48.502;8.996;2023-03-19T02:55:42;97726.25;;;7.99;88.46
72525;BME280;60547;48.502;8.996;2023-03-19T02:58:08;97724.59;;;8.02;87.93
72525;BME280;60547;48.502;8.996;2023-03-19T03:00:33;97713.09;;;8.03;87.68
72525;BME280;60547;48.502;8.996;2023-03-19T03:02:59;97707.56;;;8.03;88.14
72525;BME280;60547;48.502;8.996;2023-03-19T03:05:26;97714.31;;;8.02;88.18
72525;BME280;60547;48.502;8.996;2023-03-19T03:07:51;97731.00;;;7.99;88.83
72525;BME280;60547;48.502;8.996;2023-03-19T03:10:18;97727.66;;;8.07;89.02
72525;BME280;60547;48.502;8.996;2023-03-19T03:12:43;97721.41;;;8.03;88.64
72525;BME280;60547;48.502;8.996;2023-03-19T03:15:09;97723.81;;;8.01;88.84
72525;BME280;60547;48.502;8.996;2023-03-19T03:17:38;97726.81;;;8.10;89.06
72525;BME280;60547;48.502;8.996;2023-03-19T03:20:06;97726.47;;;8.08;89.49
72525;BME280;60547;48.502;8.996;2023-03-19T03:22:31;97721.06;;;8.01;89.57
72525;BME280;60547;48.502;8.996;2023-03-19T03:24:57;97729.38;;;8.01;89.36
72525;BME280;60547;48.502;8.996;2023-03-19T03:27:23;97735.28;;;8.03;90.17
72525;BME280;60547;48.502;8.996;2023-03-19T03:29:49;97731.41;;;7.97;89.57
72525;BME280;60547;48.502;8.996;2023-03-19T03:32:15;97734.41;;;8.06;89.52
72525;BME280;60547;48.502;8.996;2023-03-19T03:34:40;97734.06;;;8.04;89.54
72525;BME280;60547;48.502;8.996;2023-03-19T03:37:06;97743.56;;;8.03;89.84
72525;BME280;60547;48.502;8.996;2023-03-19T03:39:32;97741.28;;;7.98;90.04
72525;BME280;60547;48.502;8.996;2023-03-19T03:41:57;97728.38;;;7.68;91.04
72525;BME280;60547;48.502;8.996;2023-03-19T03:44:23;97729.03;;;7.76;89.74
72525;BME280;60547;48.502;8.996;2023-03-19T03:46:48;97723.38;;;7.83;89.58
72525;BME280;60547;48.502;8.996;2023-03-19T03:49:14;97742.50;;;7.97;89.45
72525;BME280;60547;48.502;8.996;2023-03-19T03:51:39;97743.22;;;8.01;89.17
72525;BME280;60547;48.502;8.996;2023-03-19T03:54:05;97737.22;;;7.83;89.63
72525;BME280;60547;48.502;8.996;2023-03-19T03:56:32;97748.34;;;7.80;90.16
72525;BME280;60547;48.502;8.996;2023-03-19T03:58:57;97744.75;;;7.83;89.70
72525;BME280;60547;48.502;8.996;2023-03-19T04:01:23;97755.28;;;7.91;89.71
72525;BME280;60547;48.502;8.996;2023-03-19T04:03:49;97750.88;;;7.94;89.67
72525;BME280;60547;48.502;8.996;2023-03-19T04:06:16;97756.47;;;7.90;90.59
72525;BME280;60547;48.502;8.996;2023-03-19T04:08:43;97755.75;;;7.86;90.96
72525;BME280;60547;48.502;8.996;2023-03-19T04:11:09;97752.63;;;7.84;91.04
72525;BME280;60547;48.502;8.996;2023-03-19T04:13:35;97756.59;;;7.83;90.82
72525;BME280;60547;48.502;8.996;2023-03-19T04:16:03;97757.44;;;7.80;90.87
72525;BME280;60547;48.502;8.996;2023-03-19T04:18:29;97757.09;;;7.78;91.35
72525;BME280;60547;48.502;8.996;2023-03-19T04:20:55;97757.09;;;7.78;91.32
72525;BME280;60547;48.502;8.996;2023-03-19T04:23:23;97763.59;;;7.91;90.63
72525;BME280;60547;48.502;8.996;2023-03-19T04:25:48;97762.38;;;7.92;91.30
72525;BME280;60547;48.502;8.996;2023-03-19T04:28:15;97752.50;;;7.91;91.50
72525;BME280;60547;48.502;8.996;2023-03-19T04:30:41;97749.00;;;7.87;91.36
72525;BME280;60547;48.502;8.996;2023-03-19T04:33:08;97756.47;;;7.90;91.31
72525;BME280;60547;48.502;8.996;2023-03-19T04:35:35;97750.69;;;7.81;91.31
72525;BME280;60547;48.502;8.996;2023-03-19T04:38:01;97758.03;;;7.91;91.50
72525;BME280;60547;48.502;8.996;2023-03-19T04:40:27;97761.19;;;7.93;91.35
72525;BME280;60547;48.502;8.996;2023-03-19T04:42:53;97773.81;;;7.94;91.16
72525;BME280;60547;48.502;8.996;2023-03-19T04:45:19;97772.25;;;7.93;91.42
72525;BME280;60547;48.502;8.996;2023-03-19T04:47:45;97776.09;;;7.99;91.32
72525;BME280;60547;48.502;8.996;2023-03-19T04:50:11;97773.69;;;8.01;91.07
72525;BME280;60547;48.502;8.996;2023-03-19T04:52:38;97776.09;;;7.99;91.81
72525;BME280;60547;48.502;8.996;2023-03-19T04:55:06;97777.75;;;7.97;91.78
72525;BME280;60547;48.502;8.996;2023-03-19T04:57:32;97771.06;;;7.94;91.74
72525;BME280;60547;48.502;8.996;2023-03-19T04:59:58;97764.44;;;7.88;91.82
72525;BME280;60547;48.502;8.996;2023-03-19T05:02:24;97776.53;;;7.98;91.80
72525;BME280;60547;48.502;8.996;2023-03-19T05:04:50;97765.50;;;7.94;92.06
72525;BME280;60547;48.502;8.996;2023-03-19T05:07:16;97750.03;;;7.73;93.38
72525;BME280;60547;48.502;8.996;2023-03-19T05:09:41;97762.97;;;7.57;94.57
72525;BME280;60547;48.502;8.996;2023-03-19T05:12:09;97774.06;;;7.80;93.67
72525;BME280;60547;48.502;8.996;2023-03-19T05:14:35;97784.91;;;7.94;92.25
72525;BME280;60547;48.502;8.996;2023-03-19T05:17:00;97784.00;;;8.01;92.18
72525;BME280;60547;48.502;8.996;2023-03-19T05:19:26;97782.19;;;7.91;93.06
72525;BME280;60547;48.502;8.996;2023-03-19T05:21:51;97785.88;;;7.84;92.96
72525;BME280;60547;48.502;8.996;2023-03-19T05:24:17;97791.28;;;7.91;93.03
72525;BME280;60547;48.502;8.996;2023-03-19T05:26:43;97771.00;;;7.74;93.36
72525;BME280;60547;48.502;8.996;2023-03-19T05:29:08;97790.22;;;7.85;93.16
72525;BME280;60547;48.502;8.996;2023-03-19T05:31:36;97777.91;;;7.86;92.57
72525;BME280;60547;48.502;8.996;2023-03-19T05:34:03;97795.94;;;7.98;92.00
72525;BME280;60547;48.502;8.996;2023-03-19T05:36:28;97793.28;;;7.91;91.78
72525;BME280;60547;48.502;8.996;2023-03-19T05:38:55;97785.88;;;7.84;92.38
72525;BME280;60547;48.502;8.996;2023-03-19T05:41:20;97792.06;;;7.92;93.32
72525;BME280;60547;48.502;8.996;2023-03-19T05:43:46;97792.06;;;7.92;93.48
72525;BME280;60547;48.502;8.996;2023-03-19T05:46:12;97794.41;;;7.93;93.58
72525;BME280;60547;48.502;8.996;2023-03-19T05:48:37;97797.25;;;7.90;92.81
72525;BME280;60547;48.502;8.996;2023-03-19T05:51:04;97803.22;;;7.88;93.22
72525;BME280;60547;48.502;8.996;2023-03-19T05:53:29;97805.25;;;7.84;93.02
72525;BME280;60547;48.502;8.996;2023-03-19T05:55:55;97813.81;;;7.93;92.78
72525;BME280;60547;48.502;8.996;2023-03-19T05:58:21;97832.91;;;8.11;92.21
72525;BME280;60547;48.502;8.996;2023-03-19T06:00:50;97819.00;;;7.91;92.19
72525;BME280;60547;48.502;8.996;2023-03-19T06:03:16;97812.78;;;7.84;92.79
72525;BME280;60547;48.502;8.996;2023-03-19T06:05:41;97829.72;;;7.89;93.29
72525;BME280;60547;48.502;8.996;2023-03-19T06:08:07;97823.91;;;7.80;94.02
72525;BME280;60547;48.502;8.996;2023-03-19T06:10:34;97833.31;;;7.86;94.40
72525;BME280;60547;48.502;8.996;2023-03-19T06:13:00;97824.75;;;7.77;94.12
72525;BME280;60547;48.502;8.996;2023-03-19T06:15:26;97818.03;;;7.78;93.78
72525;BME280;60547;48.502;8.996;2023-03-19T06:17:52;97836.81;;;7.90;92.79
72525;BME280;60547;48.502;8.996;2023-03-19T06:20:18;97824.03;;;7.73;94.76
72525;BME280;60547;48.502;8.996;2023-03-19T06:22:44;97839.69;;;7.83;94.79
72525;BME280;60547;48.502;8.996;2023-03-19T06:25:09;97837.19;;;7.92;94.06
72525;BME280;60547;48.502;8.996;2023-03-19T06:27:35;97826.69;;;7.80;95.00
72525;BME280;60547;48.502;8.996;2023-03-19T06:30:01;97834.78;;;7.94;94.58
72525;BME280;60547;48.502;8.996;2023-03-19T06:32:27;97829.22;;;7.94;94.22
72525;BME280;60547;48.502;8.996;2023-03-19T06:34:53;97833.94;;;7.97;94.59
72525;BME280;60547;48.502;8.996;2023-03-19T06:37:20;97832.47;;;7.89;93.79
72525;BME280;60547;48.502;8.996;2023-03-19T06:39:46;97838.63;;;8.00;93.87
72525;BME280;60547;48.502;8.996;2023-03-19T06:42:13;97828.34;;;8.01;94.50
72525;BME280;60547;48.502;8.996;2023-03-19T06:44:39;97822.25;;;7.86;94.88
72525;BME280;60547;48.502;8.996;2023-03-19T06:47:05;97825.63;;;7.97;94.52
72525;BME280;60547;48.502;8.996;2023-03-19T06:49:32;97824.25;;;8.09;94.86
72525;BME280;60547;48.502;8.996;2023-03-19T06:51:58;97820.19;;;8.14;93.83
72525;BME280;60547;48.502;8.996;2023-03-19T06:54:24;97830.03;;;8.18;93.98
72525;BME280;60547;48.502;8.996;2023-03-19T06:56:50;97803.34;;;8.04;94.02
72525;BME280;60547;48.502;8.996;2023-03-19T06:59:15;97832.84;;;8.15;94.65
72525;BME280;60547;48.502;8.996;2023-03-19T07:01:42;97810.09;;;8.03;94.38
72525;BME280;60547;48.502;8.996;2023-03-19T07:04:08;97825.75;;;8.14;94.83
72525;BME280;60547;48.502;8.996;2023-03-19T07:06:34;97816.22;;;8.15;94.63
72525;BME280;60547;48.502;8.996;2023-03-19T07:08:59;97826.34;;;8.25;94.40
72525;BME280;60547;48.502;8.996;2023-03-19T07:11:25;97827.19;;;8.22;94.30
72525;BME280;60547;48.502;8.996;2023-03-19T07:13:51;97837.38;;;8.28;93.98
72525;BME280;60547;48.502;8.996;2023-03-19T07:16:17;97831.16;;;8.21;93.50
72525;BME280;60547;48.502;8.996;2023-03-19T07:18:43;97831.75;;;8.32;93.57
72525;BME280;60547;48.502;8.996;2023-03-19T07:21:08;97837.22;;;8.39;93.42
72525;BME280;60547;48.502;8.996;2023-03-19T07:23:34;97831.19;;;8.44;93.80
72525;BME280;60547;48.502;8.996;2023-03-19T07:26:00;97839.38;;;8.51;93.87
72525;BME280;60547;48.502;8.996;2023-03-19T07:28:26;97836.81;;;8.60;93.01
72525;BME280;60547;48.502;8.996;2023-03-19T07:30:52;97836.59;;;8.71;92.69
72525;BME280;60547;48.502;8.996;2023-03-19T07:33:19;97839.59;;;8.80;92.90
72525;BME280;60547;48.502;8.996;2023-03-19T07:35:46;97838.81;;;8.80;92.83
72525;BME280;60547;48.502;8.996;2023-03-19T07:38:12;97836.41;;;8.82;91.73
72525;BME280;60547;48.502;8.996;2023-03-19T07:40:39;97844.09;;;8.94;91.08
72525;BME280;60547;48.502;8.996;2023-03-19T07:43:05;97847.50;;;9.01;90.09
72525;BME280;60547;48.502;8.996;2023-03-19T07:45:31;97851.00;;;9.05;90.31
72525;BME280;60547;48.502;8.996;2023-03-19T07:47:56;97846.16;;;9.10;89.24
72525;BME280;60547;48.502;8.996;2023-03-19T07:50:22;97840.22;;;9.27;89.10
72525;BME280;60547;48.502;8.996;2023-03-19T07:52:48;97846.09;;;9.49;90.02
72525;BME280;60547;48.502;8.996;2023-03-19T07:55:16;97843.94;;;9.57;88.93
72525;BME280;60547;48.502;8.996;2023-03-19T07:57:42;97831.09;;;9.63;88.39
72525;BME280;60547;48.502;8.996;2023-03-19T08:00:08;97845.88;;;9.76;88.01
72525;BME280;60547;48.502;8.996;2023-03-19T08:02:35;97843.75;;;9.48;89.21
72525;BME280;60547;48.502;8.996;2023-03-19T08:05:01;97840.47;;;9.53;89.17
72525;BME280;60547;48.502;8.996;2023-03-19T08:07:30;97845.00;;;9.63;88.77
72525;BME280;60547;48.502;8.996;2023-03-19T08:09:56;97841.19;;;9.37;89.96
72525;BME280;60547;48.502;8.996;2023-03-19T08:12:23;97848.81;;;9.33;90.05
72525;BME280;60547;48.502;8.996;2023-03-19T08:14:49;97846.16;;;9.46;89.67
72525;BME280;60547;48.502;8.996;2023-03-19T08:17:15;97843.16;;;9.56;89.11
72525;BME280;60547;48.502;8.996;2023-03-19T08:19:42;97838.50;;;9.69;90.48
72525;BME280;60547;48.502;8.996;2023-03-19T08:22:08;97853.16;;;9.70;89.71
72525;BME280;60547;48.502;8.996;2023-03-19T08:24:34;97838.06;;;9.71;88.29
72525;BME280;60547;48.502;8.996;2023-03-19T08:26:59;97831.56;;;9.78;87.93
72525;BME280;60547;48.502;8.996;2023-03-19T08:29:26;97827.56;;;9.79;88.40
72525;BME280;60547;48.502;8.996;2023-03-19T08:31:54;97844.41;;;10.04;87.78
72525;BME280;60547;48.502;8.996;2023-03-19T08:34:21;97843.66;;;10.20;87.84
72525;BME280;60547;48.502;8.996;2023-03-19T08:36:47;97843.81;;;10.13;87.85
72525;BME280;60547;48.502;8.996;2023-03-19T08:39:16;97839.28;;;10.02;87.96
72525;BME280;60547;48.502;8.996;2023-03-19T08:41:42;97839.47;;;10.12;89.47
72525;BME280;60547;48.502;8.996;2023-03-19T08:44:08;97846.69;;;10.25;88.86
72525;BME280;60547;48.502;8.996;2023-03-19T08:46:34;97843.38;;;10.30;88.59
72525;BME280;60547;48.502;8.996;2023-03-19T08:49:00;97849.19;;;10.81;87.39
72525;BME280;60547;48.502;8.996;2023-03-19T08:51:27;97851.53;;;10.83;86.13
72525;BME280;60547;48.502;8.996;2023-03-19T08:53:55;97843.19;;;11.24;85.58
72525;BME280;60547;48.502;8.996;2023-03-19T08:56:21;97840.91;;;11.61;85.02
72525;BME280;60547;48.502;8.996;2023-03-19T08:58:47;97845.56;;;11.39;82.21
72525;BME280;60547;48.502;8.996;2023-03-19T09:01:14;97845.22;;;11.37;81.52
72525;BME280;60547;48.502;8.996;2023-03-19T09:03:41;97836.66;;;11.44;79.86
72525;BME280;60547;48.502;8.996;2023-03-19T09:06:09;97841.25;;;11.76;77.60
72525;BME280;60547;48.502;8.996;2023-03-19T09:08:36;97838.13;;;12.12;76.58
72525;BME280;60547;48.502;8.996;2023-03-19T09:11:03;97839.88;;;12.31;75.15
72525;BME280;60547;48.502;8.996;2023-03-19T09:13:29;97832.34;;;12.53;74.75
72525;BME280;60547;48.502;8.996;2023-03-19T09:15:55;97847.38;;;12.69;74.71
72525;BME280;60547;48.502;8.996;2023-03-19T09:18:21;97837.75;;;12.70;73.07
72525;BME280;60547;48.502;8.996;2023-03-19T09:20:50;97832.91;;;12.83;72.86
72525;BME280;60547;48.502;8.996;2023-03-19T09:23:17;97838.25;;;13.12;73.33
72525;BME280;60547;48.502;8.996;2023-03-19T09:25:42;97840.41;;;13.30;70.67
72525;BME280;60547;48.502;8.996;2023-03-19T09:28:09;97838.31;;;13.43;73.53
72525;BME280;60547;48.502;8.996;2023-03-19T09:30:35;97828.75;;;13.53;69.12
72525;BME280;60547;48.502;8.996;2023-03-19T09:33:00;97839.78;;;13.56;71.77
72525;BME280;60547;48.502;8.996;2023-03-19T09:35:26;97833.03;;;13.76;68.75
72525;BME280;60547;48.502;8.996;2023-03-19T09:37:59;97826.88;;;13.90;67.91
72525;BME280;60547;48.502;8.996;2023-03-19T09:40:30;97823.63;;;13.92;65.13
72525;BME280;60547;48.502;8.996;2023-03-19T09:45:36;97827.09;;;14.05;62.98
72525;BME280;60547;48.502;8.996;2023-03-19T09:48:06;97823.72;;;14.28;64.12
72525;BME280;60547;48.502;8.996;2023-03-19T09:50:33;97815.66;;;14.30;62.22
72525;BME280;60547;48.502;8.996;2023-03-19T09:53:52;97828.25;;;14.35;64.23
72525;BME280;60547;48.502;8.996;2023-03-19T09:56:15;97823.03;;;14.55;62.53
72525;BME280;60547;48.502;8.996;2023-03-19T09:58:41;97818.03;;;14.86;61.65
72525;BME280;60547;48.502;8.996;2023-03-19T10:01:36;97807.94;;;14.71;57.34
72525;BME280;60547;48.502;8.996;2023-03-19T10:04:36;97811.03;;;14.82;58.35
72525;BME280;60547;48.502;8.996;2023-03-19T10:07:26;97803.56;;;14.97;56.30
72525;BME280;60547;48.502;8.996;2023-03-19T10:15:54;97801.63;;;15.40;50.56
72525;BME280;60547;48.502;8.996;2023-03-19T10:18:25;97796.28;;;15.51;49.88
72525;BME280;60547;48.502;8.996;2023-03-19T10:23:44;97802.66;;;15.61;49.68
72525;BME280;60547;48.502;8.996;2023-03-19T10:26:31;97800.38;;;15.41;49.67
72525;BME280;60547;48.502;8.996;2023-03-19T10:31:48;97797.84;;;15.61;51.09
72525;BME280;60547;48.502;8.996;2023-03-19T10:34:43;97808.38;;;15.75;49.10
72525;BME280;60547;48.502;8.996;2023-03-19T10:37:16;97789.91;;;15.60;49.26
72525;BME280;60547;48.502;8.996;2023-03-19T10:39:45;97786.50;;;15.89;47.87
72525;BME280;60547;48.502;8.996;2023-03-19T10:45:02;97790.50;;;15.97;48.15
72525;BME280;60547;48.502;8.996;2023-03-19T10:47:36;97786.09;;;16.05;49.25
72525;BME280;60547;48.502;8.996;2023-03-19T10:50:02;97788.25;;;16.10;48.28
72525;BME280;60547;48.502;8.996;2023-03-19T10:52:32;97786.47;;;16.22;47.70
72525;BME280;60547;48.502;8.996;2023-03-19T10:55:24;97785.31;;;16.52;48.08
72525;BME280;60547;48.502;8.996;2023-03-19T10:57:55;97794.41;;;16.47;48.51
72525;BME280;60547;48.502;8.996;2023-03-19T11:00:28;97792.38;;;16.24;48.63
72525;BME280;60547;48.502;8.996;2023-03-19T11:02:56;97791.19;;;16.15;46.92
72525;BME280;60547;48.502;8.996;2023-03-19T11:05:24;97791.97;;;16.16;47.51
72525;BME280;60547;48.502;8.996;2023-03-19T11:08:03;97793.50;;;16.17;49.15
72525;BME280;60547;48.502;8.996;2023-03-19T11:10:31;97789.75;;;16.44;47.50
72525;BME280;60547;48.502;8.996;2023-03-19T11:15:46;97777.59;;;16.62;47.95
72525;BME280;60547;48.502;8.996;2023-03-19T11:18:24;97791.94;;;16.64;47.34
72525;BME280;60547;48.502;8.996;2023-03-19T11:23:20;97793.16;;;16.72;46.58
72525;BME280;60547;48.502;8.996;2023-03-19T11:25:51;97788.84;;;17.00;46.18
72525;BME280;60547;48.502;8.996;2023-03-19T11:28:20;97783.22;;;16.62;46.22
72525;BME280;60547;48.502;8.996;2023-03-19T11:36:20;97773.25;;;17.29;43.78
72525;BME280;60547;48.502;8.996;2023-03-19T11:38:58;97772.38;;;17.67;43.95
72525;BME280;60547;48.502;8.996;2023-03-19T12:00:41;97756.38;;;16.99;43.86
72525;BME280;60547;48.502;8.996;2023-03-19T12:05:55;97770.97;;;16.50;44.28
72525;BME280;60547;48.502;8.996;2023-03-19T12:08:38;97759.94;;;16.46;44.92
72525;BME280;60547;48.502;8.996;2023-03-19T12:22:47;97762.88;;;16.28;46.70
72525;BME280;60547;48.502;8.996;2023-03-19T12:25:36;97755.69;;;16.27;46.58
72525;BME280;60547;48.502;8.996;2023-03-19T12:30:44;97755.41;;;16.25;46.81
72525;BME280;60547;48.502;8.996;2023-03-19T12:33:39;97761.19;;;16.22;47.63
72525;BME280;60547;48.502;8.996;2023-03-19T12:36:14;97750.38;;;16.05;46.84
72525;BME280;60547;48.502;8.996;2023-03-19T12:38:59;97741.44;;;16.16;47.16
72525;BME280;60547;48.502;8.996;2023-03-19T12:41:27;97745.19;;;16.37;47.77
72525;BME280;60547;48.502;8.996;2023-03-19T12:43:59;97744.41;;;16.36;47.15
72525;BME280;60547;48.502;8.996;2023-03-19T12:46:36;97743.22;;;16.28;46.53
72525;BME280;60547;48.502;8.996;2023-03-19T12:49:22;97744.22;;;16.16;46.92
72525;BME280;60547;48.502;8.996;2023-03-19T12:58:09;97732.34;;;16.21;46.75
72525;BME280;60547;48.502;8.996;2023-03-19T13:01:09;97737.06;;;16.15;48.49
72525;BME280;60547;48.502;8.996;2023-03-19T13:06:33;97731.09;;;16.22;48.09
72525;BME280;60547;48.502;8.996;2023-03-19T13:14:22;97728.31;;;16.37;47.76
72525;BME280;60547;48.502;8.996;2023-03-19T13:19:39;97711.59;;;15.71;47.47
72525;BME280;60547;48.502;8.996;2023-03-19T13:22:20;97726.44;;;15.95;47.40
72525;BME280;60547;48.502;8.996;2023-03-19T13:24:47;97725.91;;;16.06;47.83
72525;BME280;60547;48.502;8.996;2023-03-19T13:27:26;97729.25;;;15.95;48.20
72525;BME280;60547;48.502;8.996;2023-03-19T13:32:49;97724.03;;;15.79;49.47
72525;BME280;60547;48.502;8.996;2023-03-19T13:38:02;97734.81;;;15.71;49.23
72525;BME280;60547;48.502;8.996;2023-03-19T13:40:52;97731.75;;;15.60;49.57
72525;BME280;60547;48.502;8.996;2023-03-19T13:46:47;97731.22;;;15.38;49.81
72525;BME280;60547;48.502;8.996;2023-03-19T13:52:09;97737.28;;;15.36;51.01
72525;BME280;60547;48.502;8.996;2023-03-19T13:54:44;97736.41;;;15.21;52.21
72525;BME280;60547;48.502;8.996;2023-03-19T13:59:46;97733.66;;;15.45;51.65
72525;BME280;60547;48.502;8.996;2023-03-19T14:07:38;97724.38;;;15.30;51.19
72525;BME280;60547;48.502;8.996;2023-03-19T14:10:15;97729.69;;;15.28;51.09
72525;BME280;60547;48.502;8.996;2023-03-19T14:12:44;97721.34;;;15.09;51.60
72525;BME280;60547;48.502;8.996;2023-03-19T14:15:16;97730.66;;;15.15;52.40
72525;BME280;60547;48.502;8.996;2023-03-19T14:17:58;97727.59;;;14.95;51.71
72525;BME280;60547;48.502;8.996;2023-03-19T14:20:31;97735.69;;;14.93;51.81
72525;BME280;60547;48.502;8.996;2023-03-19T14:23:20;97737.59;;;14.60;53.68
72525;BME280;60547;48.502;8.996;2023-03-19T14:26:15;97739.94;;;14.43;54.25
72525;BME280;60547;48.502;8.996;2023-03-19T14:34:25;97732.44;;;14.31;54.60
72525;BME280;60547;48.502;8.996;2023-03-19T14:39:42;97737.56;;;14.32;54.69
72525;BME280;60547;48.502;8.996;2023-03-19T14:42:18;97744.09;;;14.29;54.81
72525;BME280;60547;48.502;8.996;2023-03-19T14:50:31;97738.97;;;14.09;55.88
72525;BME280;60547;48.502;8.996;2023-03-19T14:53:14;97739.75;;;14.28;55.87
72525;BME280;60547;48.502;8.996;2023-03-19T14:56:04;97742.25;;;14.26;55.51
72525;BME280;60547;48.502;8.996;2023-03-19T14:58:34;97724.81;;;14.13;55.71
72525;BME280;60547;48.502;8.996;2023-03-19T15:00:59;97738.97;;;14.09;55.50
72525;BME280;60547;48.502;8.996;2023-03-19T15:03:36;97739.25;;;14.02;55.98
72525;BME280;60547;48.502;8.996;2023-03-19T15:06:04;97739.72;;;14.01;56.29
72525;BME280;60547;48.502;8.996;2023-03-19T15:08:32;97748.88;;;14.01;56.48
72525;BME280;60547;48.502;8.996;2023-03-19T15:11:08;97747.47;;;13.87;56.43
72525;BME280;60547;48.502;8.996;2023-03-19T15:16:34;97751.69;;;14.01;57.07
72525;BME280;60547;48.502;8.996;2023-03-19T15:19:09;97746.56;;;14.09;57.02